sensor_id;sensor_type;location;lat;lon;timestamp;P1;durP1;ratioP1;P2;durP2;ratioP2
68273;SDS011;55104;47.356;19.448;2023-07-02T00:00:29;14.63;;;5.00;;
68273;SDS011;55104;47.356;19.448;2023-07-02T00:03:31;12.75;;;5.70;;
68273;SDS011;55104;47.356;19.448;2023-07-02T00:06:34;13.80;;;5.22;;
68273;SDS011;55104;47.356;19.448;2023-07-02T00:09:41;10.63;;;4.70;;
68273;SDS011;55104;47.356;19.448;2023-07-02T00:12:43;11.32;;;5.13;;
68273;SDS011;55104;47.356;19.448;2023-07-02T00:15:46;12.18;;;5.20;;
68273;SDS011;55104;47.356;19.448;2023-07-02T00:18:48;14.07;;;5.28;;
68273;SDS011;55104;47.356;19.448;2023-07-02T00:21:54;12.77;;;5.20;;
68273;SDS011;55104;47.356;19.448;2023-07-02T00:24:56;12.03;;;5.77;;
68273;SDS011;55104;47.356;19.448;2023-07-02T00:27:58;11.82;;;5.72;;
68273;SDS011;55104;47.356;19.448;2023-07-02T00:31:01;12.30;;;5.78;;
68273;SDS011;55104;47.356;19.448;2023-07-02T00:34:04;10.95;;;5.22;;
68273;SDS011;55104;47.356;19.448;2023-07-02T00:37:06;10.48;;;5.07;;
68273;SDS011;55104;47.356;19.448;2023-07-02T00:40:08;10.47;;;5.83;;
68273;SDS011;55104;47.356;19.448;2023-07-02T00:43:10;11.07;;;5.68;;
68273;SDS011;55104;47.356;19.448;2023-07-02T00:46:15;12.70;;;6.15;;
68273;SDS011;55104;47.356;19.448;2023-07-02T00:49:20;11.00;;;5.22;;
68273;SDS011;55104;47.356;19.448;2023-07-02T00:52:22;11.48;;;5.50;;
68273;SDS011;55104;47.356;19.448;2023-07-02T00:55:26;12.13;;;5.10;;
68273;SDS011;55104;47.356;19.448;2023-07-02T00:58:29;10.75;;;5.30;;
68273;SDS011;55104;47.356;19.448;2023-07-02T01:01:31;11.82;;;5.75;;
68273;SDS011;55104;47.356;19.448;2023-07-02T01:04:39;12.18;;;5.20;;
68273;SDS011;55104;47.356;19.448;2023-07-02T01:07:42;11.27;;;5.57;;
68273;SDS011;55104;47.356;19.448;2023-07-02T01:10:46;11.87;;;5.20;;
68273;SDS011;55104;47.356;19.448;2023-07-02T01:13:49;15.48;;;5.90;;
68273;SDS011;55104;47.356;19.448;2023-07-02T01:16:54;13.35;;;5.57;;
68273;SDS011;55104;47.356;19.448;2023-07-02T01:19:57;11.82;;;5.18;;
68273;SDS011;55104;47.356;19.448;2023-07-02T01:23:01;12.30;;;5.47;;
68273;SDS011;55104;47.356;19.448;2023-07-02T01:26:04;11.60;;;6.10;;
68273;SDS011;55104;47.356;19.448;2023-07-02T01:32:38;12.23;;;5.97;;
68273;SDS011;55104;47.356;19.448;2023-07-02T01:35:41;11.90;;;5.88;;
68273;SDS011;55104;47.356;19.448;2023-07-02T01:38:44;13.98;;;6.18;;
68273;SDS011;55104;47.356;19.448;2023-07-02T01:41:52;12.53;;;6.50;;
68273;SDS011;55104;47.356;19.448;2023-07-02T01:44:55;11.25;;;6.05;;
68273;SDS011;55104;47.356;19.448;2023-07-02T01:47:57;11.32;;;6.35;;
68273;SDS011;55104;47.356;19.448;2023-07-02T01:50:59;12.02;;;5.93;;
68273;SDS011;55104;47.356;19.448;2023-07-02T01:54:01;12.63;;;6.13;;
68273;SDS011;55104;47.356;19.448;2023-07-02T01:57:04;14.17;;;6.17;;
68273;SDS011;55104;47.356;19.448;2023-07-02T02:00:06;13.52;;;6.20;;
68273;SDS011;55104;47.356;19.448;2023-07-02T02:03:17;12.50;;;6.68;;
68273;SDS011;55104;47.356;19.448;2023-07-02T02:06:19;15.57;;;7.05;;
68273;SDS011;55104;47.356;19.448;2023-07-02T02:09:21;12.13;;;6.53;;
68273;SDS011;55104;47.356;19.448;2023-07-02T02:12:23;10.10;;;5.33;;
68273;SDS011;55104;47.356;19.448;2023-07-02T02:15:25;13.57;;;6.13;;
68273;SDS011;55104;47.356;19.448;2023-07-02T02:18:27;14.00;;;6.93;;
68273;SDS011;55104;47.356;19.448;2023-07-02T02:21:29;11.65;;;5.95;;
68273;SDS011;55104;47.356;19.448;2023-07-02T02:24:31;13.93;;;7.25;;
68273;SDS011;55104;47.356;19.448;2023-07-02T02:27:33;14.13;;;7.00;;
68273;SDS011;55104;47.356;19.448;2023-07-02T02:30:36;13.45;;;6.65;;
68273;SDS011;55104;47.356;19.448;2023-07-02T02:33:39;18.40;;;6.18;;
68273;SDS011;55104;47.356;19.448;2023-07-02T02:36:41;16.45;;;7.15;;
68273;SDS011;55104;47.356;19.448;2023-07-02T02:39:43;16.17;;;7.03;;
68273;SDS011;55104;47.356;19.448;2023-07-02T02:42:45;14.30;;;7.17;;
68273;SDS011;55104;47.356;19.448;2023-07-02T02:45:47;15.43;;;7.53;;
68273;SDS011;55104;47.356;19.448;2023-07-02T02:48:50;14.40;;;8.07;;
68273;SDS011;55104;47.356;19.448;2023-07-02T02:51:53;15.98;;;7.53;;
68273;SDS011;55104;47.356;19.448;2023-07-02T02:54:55;14.82;;;7.43;;
68273;SDS011;55104;47.356;19.448;2023-07-02T02:57:57;14.83;;;7.50;;
68273;SDS011;55104;47.356;19.448;2023-07-02T03:00:59;16.73;;;7.88;;
68273;SDS011;55104;47.356;19.448;2023-07-02T03:04:01;16.23;;;7.55;;
68273;SDS011;55104;47.356;19.448;2023-07-02T03:07:03;14.70;;;7.25;;
68273;SDS011;55104;47.356;19.448;2023-07-02T03:10:05;13.82;;;6.75;;
68273;SDS011;55104;47.356;19.448;2023-07-02T03:13:08;17.23;;;7.80;;
68273;SDS011;55104;47.356;19.448;2023-07-02T03:16:11;15.52;;;6.82;;
68273;SDS011;55104;47.356;19.448;2023-07-02T03:19:13;14.43;;;6.72;;
68273;SDS011;55104;47.356;19.448;2023-07-02T03:22:17;14.32;;;6.90;;
68273;SDS011;55104;47.356;19.448;2023-07-02T03:25:19;13.85;;;7.13;;
68273;SDS011;55104;47.356;19.448;2023-07-02T03:28:21;15.67;;;6.83;;
68273;SDS011;55104;47.356;19.448;2023-07-02T03:31:23;13.23;;;6.32;;
68273;SDS011;55104;47.356;19.448;2023-07-02T03:34:25;13.55;;;6.43;;
68273;SDS011;55104;47.356;19.448;2023-07-02T03:37:28;17.63;;;7.18;;
68273;SDS011;55104;47.356;19.448;2023-07-02T03:40:30;12.82;;;6.80;;
68273;SDS011;55104;47.356;19.448;2023-07-02T03:43:32;14.83;;;7.03;;
68273;SDS011;55104;47.356;19.448;2023-07-02T03:46:34;12.38;;;6.68;;
68273;SDS011;55104;47.356;19.448;2023-07-02T03:49:36;13.38;;;6.95;;
68273;SDS011;55104;47.356;19.448;2023-07-02T03:52:39;13.63;;;6.47;;
68273;SDS011;55104;47.356;19.448;2023-07-02T03:55:41;15.40;;;6.35;;
68273;SDS011;55104;47.356;19.448;2023-07-02T03:58:43;14.17;;;6.63;;
68273;SDS011;55104;47.356;19.448;2023-07-02T04:01:45;16.10;;;6.43;;
68273;SDS011;55104;47.356;19.448;2023-07-02T04:04:47;12.95;;;5.95;;
68273;SDS011;55104;47.356;19.448;2023-07-02T04:07:49;13.13;;;6.47;;
68273;SDS011;55104;47.356;19.448;2023-07-02T04:10:51;13.40;;;5.93;;
68273;SDS011;55104;47.356;19.448;2023-07-02T04:13:53;16.43;;;5.90;;
68273;SDS011;55104;47.356;19.448;2023-07-02T04:16:55;13.82;;;6.28;;
68273;SDS011;55104;47.356;19.448;2023-07-02T04:19:59;13.55;;;5.82;;
68273;SDS011;55104;47.356;19.448;2023-07-02T04:23:01;16.27;;;5.82;;
68273;SDS011;55104;47.356;19.448;2023-07-02T04:26:03;12.57;;;6.18;;
68273;SDS011;55104;47.356;19.448;2023-07-02T04:29:25;12.50;;;6.20;;
68273;SDS011;55104;47.356;19.448;2023-07-02T04:32:27;14.60;;;6.05;;
68273;SDS011;55104;47.356;19.448;2023-07-02T04:35:29;11.77;;;6.00;;
68273;SDS011;55104;47.356;19.448;2023-07-02T04:38:31;11.98;;;5.28;;
68273;SDS011;55104;47.356;19.448;2023-07-02T04:41:33;12.00;;;4.72;;
68273;SDS011;55104;47.356;19.448;2023-07-02T04:44:35;11.43;;;4.67;;
68273;SDS011;55104;47.356;19.448;2023-07-02T04:47:37;13.50;;;5.10;;
68273;SDS011;55104;47.356;19.448;2023-07-02T04:50:41;10.70;;;4.88;;
68273;SDS011;55104;47.356;19.448;2023-07-02T04:53:43;10.52;;;4.30;;
68273;SDS011;55104;47.356;19.448;2023-07-02T04:56:45;11.15;;;4.95;;
68273;SDS011;55104;47.356;19.448;2023-07-02T04:59:47;9.50;;;4.13;;
68273;SDS011;55104;47.356;19.448;2023-07-02T05:02:49;10.80;;;4.57;;
68273;SDS011;55104;47.356;19.448;2023-07-02T05:05:52;10.25;;;4.35;;
68273;SDS011;55104;47.356;19.448;2023-07-02T05:08:54;7.90;;;3.47;;
68273;SDS011;55104;47.356;19.448;2023-07-02T05:11:56;8.95;;;3.83;;
68273;SDS011;55104;47.356;19.448;2023-07-02T05:14:59;8.93;;;3.67;;
68273;SDS011;55104;47.356;19.448;2023-07-02T05:18:01;9.20;;;3.67;;
68273;SDS011;55104;47.356;19.448;2023-07-02T05:21:03;10.73;;;3.58;;
68273;SDS011;55104;47.356;19.448;2023-07-02T05:24:05;10.45;;;4.00;;
68273;SDS011;55104;47.356;19.448;2023-07-02T05:27:10;9.77;;;4.00;;
68273;SDS011;55104;47.356;19.448;2023-07-02T05:30:12;8.73;;;3.50;;
68273;SDS011;55104;47.356;19.448;2023-07-02T05:33:14;9.60;;;3.50;;
68273;SDS011;55104;47.356;19.448;2023-07-02T05:36:16;9.05;;;3.88;;
68273;SDS011;55104;47.356;19.448;2023-07-02T05:39:18;7.30;;;3.10;;
68273;SDS011;55104;47.356;19.448;2023-07-02T05:42:20;8.32;;;3.80;;
68273;SDS011;55104;47.356;19.448;2023-07-02T05:45:22;8.53;;;3.67;;
68273;SDS011;55104;47.356;19.448;2023-07-02T05:48:25;9.20;;;3.35;;
68273;SDS011;55104;47.356;19.448;2023-07-02T05:51:27;8.68;;;3.58;;
68273;SDS011;55104;47.356;19.448;2023-07-02T05:54:29;8.63;;;3.63;;
68273;SDS011;55104;47.356;19.448;2023-07-02T05:57:31;9.65;;;3.90;;
68273;SDS011;55104;47.356;19.448;2023-07-02T06:00:33;7.97;;;3.53;;
68273;SDS011;55104;47.356;19.448;2023-07-02T06:03:35;7.88;;;3.55;;
68273;SDS011;55104;47.356;19.448;2023-07-02T06:06:37;9.40;;;3.72;;
68273;SDS011;55104;47.356;19.448;2023-07-02T06:09:39;8.48;;;3.45;;
68273;SDS011;55104;47.356;19.448;2023-07-02T06:12:41;8.57;;;3.80;;
68273;SDS011;55104;47.356;19.448;2023-07-02T06:15:45;7.53;;;3.20;;
68273;SDS011;55104;47.356;19.448;2023-07-02T06:18:48;9.95;;;4.18;;
68273;SDS011;55104;47.356;19.448;2023-07-02T06:21:50;8.82;;;3.60;;
68273;SDS011;55104;47.356;19.448;2023-07-02T06:24:52;8.30;;;3.50;;
68273;SDS011;55104;47.356;19.448;2023-07-02T06:27:54;7.45;;;3.00;;
68273;SDS011;55104;47.356;19.448;2023-07-02T06:30:59;7.53;;;3.63;;
68273;SDS011;55104;47.356;19.448;2023-07-02T06:34:01;9.77;;;4.00;;
68273;SDS011;55104;47.356;19.448;2023-07-02T06:37:04;8.27;;;3.70;;
68273;SDS011;55104;47.356;19.448;2023-07-02T06:40:06;8.45;;;3.90;;
68273;SDS011;55104;47.356;19.448;2023-07-02T06:43:10;9.13;;;3.42;;
68273;SDS011;55104;47.356;19.448;2023-07-02T06:46:12;9.33;;;3.70;;
68273;SDS011;55104;47.356;19.448;2023-07-02T06:49:14;11.07;;;3.75;;
68273;SDS011;55104;47.356;19.448;2023-07-02T06:52:17;10.02;;;3.63;;
68273;SDS011;55104;47.356;19.448;2023-07-02T06:55:19;8.23;;;3.42;;
68273;SDS011;55104;47.356;19.448;2023-07-02T06:58:21;7.82;;;3.30;;
68273;SDS011;55104;47.356;19.448;2023-07-02T07:01:23;9.53;;;3.30;;
68273;SDS011;55104;47.356;19.448;2023-07-02T07:04:25;9.55;;;3.90;;
68273;SDS011;55104;47.356;19.448;2023-07-02T07:07:28;8.07;;;3.55;;
68273;SDS011;55104;47.356;19.448;2023-07-02T07:10:30;8.07;;;3.60;;
68273;SDS011;55104;47.356;19.448;2023-07-02T07:13:36;8.00;;;3.30;;
68273;SDS011;55104;47.356;19.448;2023-07-02T07:16:38;8.97;;;3.20;;
68273;SDS011;55104;47.356;19.448;2023-07-02T07:19:40;9.60;;;3.70;;
68273;SDS011;55104;47.356;19.448;2023-07-02T07:22:42;8.98;;;3.53;;
68273;SDS011;55104;47.356;19.448;2023-07-02T07:25:45;9.02;;;3.30;;
68273;SDS011;55104;47.356;19.448;2023-07-02T07:28:47;9.70;;;3.95;;
68273;SDS011;55104;47.356;19.448;2023-07-02T07:31:48;9.10;;;3.87;;
68273;SDS011;55104;47.356;19.448;2023-07-02T07:34:50;8.95;;;3.80;;
68273;SDS011;55104;47.356;19.448;2023-07-02T07:37:53;8.43;;;4.00;;
68273;SDS011;55104;47.356;19.448;2023-07-02T07:40:55;12.80;;;4.22;;
68273;SDS011;55104;47.356;19.448;2023-07-02T07:43:57;9.43;;;3.78;;
68273;SDS011;55104;47.356;19.448;2023-07-02T07:46:59;8.53;;;3.80;;
68273;SDS011;55104;47.356;19.448;2023-07-02T07:50:02;8.20;;;3.88;;
68273;SDS011;55104;47.356;19.448;2023-07-02T07:53:04;9.98;;;3.88;;
68273;SDS011;55104;47.356;19.448;2023-07-02T07:56:06;8.13;;;3.80;;
68273;SDS011;55104;47.356;19.448;2023-07-02T07:59:08;8.23;;;3.33;;
68273;SDS011;55104;47.356;19.448;2023-07-02T08:02:10;8.67;;;3.63;;
68273;SDS011;55104;47.356;19.448;2023-07-02T08:05:12;10.27;;;3.65;;
68273;SDS011;55104;47.356;19.448;2023-07-02T08:08:15;7.55;;;3.33;;
68273;SDS011;55104;47.356;19.448;2023-07-02T08:11:17;8.32;;;3.40;;
68273;SDS011;55104;47.356;19.448;2023-07-02T08:14:19;9.43;;;3.75;;
68273;SDS011;55104;47.356;19.448;2023-07-02T08:17:21;7.77;;;3.53;;
68273;SDS011;55104;47.356;19.448;2023-07-02T08:20:23;8.90;;;3.65;;
68273;SDS011;55104;47.356;19.448;2023-07-02T08:23:25;8.15;;;3.45;;
68273;SDS011;55104;47.356;19.448;2023-07-02T08:26:27;7.35;;;3.10;;
68273;SDS011;55104;47.356;19.448;2023-07-02T08:29:30;7.97;;;3.28;;
68273;SDS011;55104;47.356;19.448;2023-07-02T08:32:32;6.80;;;3.30;;
68273;SDS011;55104;47.356;19.448;2023-07-02T08:35:35;8.50;;;3.20;;
68273;SDS011;55104;47.356;19.448;2023-07-02T08:38:37;6.93;;;2.92;;
68273;SDS011;55104;47.356;19.448;2023-07-02T08:41:41;7.75;;;3.40;;
68273;SDS011;55104;47.356;19.448;2023-07-02T08:44:47;7.55;;;3.25;;
68273;SDS011;55104;47.356;19.448;2023-07-02T08:47:49;16.00;;;3.30;;
68273;SDS011;55104;47.356;19.448;2023-07-02T08:50:52;9.40;;;3.08;;
68273;SDS011;55104;47.356;19.448;2023-07-02T08:53:56;9.15;;;3.30;;
68273;SDS011;55104;47.356;19.448;2023-07-02T08:56:58;8.05;;;3.33;;
68273;SDS011;55104;47.356;19.448;2023-07-02T09:00:00;7.65;;;3.20;;
68273;SDS011;55104;47.356;19.448;2023-07-02T09:03:14;6.87;;;2.77;;
68273;SDS011;55104;47.356;19.448;2023-07-02T09:06:18;7.07;;;2.70;;
68273;SDS011;55104;47.356;19.448;2023-07-02T09:09:20;6.57;;;2.90;;
68273;SDS011;55104;47.356;19.448;2023-07-02T09:12:23;7.13;;;2.90;;
68273;SDS011;55104;47.356;19.448;2023-07-02T09:15:25;7.40;;;2.90;;
68273;SDS011;55104;47.356;19.448;2023-07-02T09:18:27;7.30;;;2.80;;
68273;SDS011;55104;47.356;19.448;2023-07-02T09:21:43;5.55;;;2.03;;
68273;SDS011;55104;47.356;19.448;2023-07-02T09:24:53;7.00;;;2.40;;
68273;SDS011;55104;47.356;19.448;2023-07-02T09:27:56;6.75;;;1.90;;
68273;SDS011;55104;47.356;19.448;2023-07-02T09:30:58;5.82;;;2.50;;
68273;SDS011;55104;47.356;19.448;2023-07-02T09:34:03;6.47;;;2.30;;
68273;SDS011;55104;47.356;19.448;2023-07-02T09:37:05;6.75;;;2.13;;
68273;SDS011;55104;47.356;19.448;2023-07-02T09:40:07;6.20;;;2.25;;
68273;SDS011;55104;47.356;19.448;2023-07-02T09:43:11;6.38;;;2.50;;
68273;SDS011;55104;47.356;19.448;2023-07-02T09:46:13;6.45;;;2.70;;
68273;SDS011;55104;47.356;19.448;2023-07-02T09:49:16;5.57;;;1.70;;
68273;SDS011;55104;47.356;19.448;2023-07-02T09:52:21;6.72;;;2.22;;
68273;SDS011;55104;47.356;19.448;2023-07-02T09:55:24;6.53;;;2.25;;
68273;SDS011;55104;47.356;19.448;2023-07-02T09:58:26;5.80;;;2.35;;
68273;SDS011;55104;47.356;19.448;2023-07-02T10:01:28;6.75;;;2.13;;
68273;SDS011;55104;47.356;19.448;2023-07-02T10:04:44;6.77;;;2.50;;
68273;SDS011;55104;47.356;19.448;2023-07-02T10:07:47;6.63;;;2.10;;
68273;SDS011;55104;47.356;19.448;2023-07-02T10:10:49;6.53;;;2.47;;
68273;SDS011;55104;47.356;19.448;2023-07-02T10:13:58;5.57;;;1.90;;
68273;SDS011;55104;47.356;19.448;2023-07-02T10:17:01;5.20;;;1.92;;
68273;SDS011;55104;47.356;19.448;2023-07-02T10:20:04;5.83;;;1.93;;
68273;SDS011;55104;47.356;19.448;2023-07-02T10:23:13;6.65;;;2.30;;
68273;SDS011;55104;47.356;19.448;2023-07-02T10:26:16;7.88;;;2.72;;
68273;SDS011;55104;47.356;19.448;2023-07-02T10:29:19;6.40;;;2.25;;
68273;SDS011;55104;47.356;19.448;2023-07-02T10:32:26;7.68;;;2.78;;
68273;SDS011;55104;47.356;19.448;2023-07-02T10:35:32;6.37;;;2.60;;
68273;SDS011;55104;47.356;19.448;2023-07-02T10:38:35;6.18;;;2.60;;
68273;SDS011;55104;47.356;19.448;2023-07-02T10:41:37;6.05;;;2.40;;
68273;SDS011;55104;47.356;19.448;2023-07-02T10:44:52;7.35;;;2.97;;
68273;SDS011;55104;47.356;19.448;2023-07-02T10:47:54;6.20;;;2.45;;
68273;SDS011;55104;47.356;19.448;2023-07-02T10:50:56;7.50;;;2.97;;
68273;SDS011;55104;47.356;19.448;2023-07-02T10:53:59;6.75;;;2.40;;
68273;SDS011;55104;47.356;19.448;2023-07-02T10:57:01;7.18;;;3.03;;
68273;SDS011;55104;47.356;19.448;2023-07-02T11:00:04;6.57;;;2.70;;
68273;SDS011;55104;47.356;19.448;2023-07-02T11:03:18;7.25;;;3.20;;
68273;SDS011;55104;47.356;19.448;2023-07-02T11:06:21;7.87;;;2.83;;
68273;SDS011;55104;47.356;19.448;2023-07-02T11:09:23;7.22;;;2.80;;
68273;SDS011;55104;47.356;19.448;2023-07-02T11:12:29;9.45;;;2.80;;
68273;SDS011;55104;47.356;19.448;2023-07-02T11:15:35;6.97;;;2.55;;
68273;SDS011;55104;47.356;19.448;2023-07-02T11:18:37;7.30;;;3.03;;
68273;SDS011;55104;47.356;19.448;2023-07-02T11:21:49;7.97;;;2.70;;
68273;SDS011;55104;47.356;19.448;2023-07-02T11:24:53;7.05;;;3.17;;
68273;SDS011;55104;47.356;19.448;2023-07-02T11:28:04;6.82;;;2.70;;
68273;SDS011;55104;47.356;19.448;2023-07-02T11:31:06;6.72;;;2.75;;
68273;SDS011;55104;47.356;19.448;2023-07-02T11:34:11;7.15;;;2.85;;
68273;SDS011;55104;47.356;19.448;2023-07-02T11:37:23;8.00;;;2.47;;
68273;SDS011;55104;47.356;19.448;2023-07-02T11:40:26;8.07;;;2.78;;
68273;SDS011;55104;47.356;19.448;2023-07-02T11:43:28;8.02;;;2.60;;
68273;SDS011;55104;47.356;19.448;2023-07-02T11:46:30;6.57;;;2.15;;
68273;SDS011;55104;47.356;19.448;2023-07-02T11:49:32;6.65;;;2.17;;
68273;SDS011;55104;47.356;19.448;2023-07-02T11:52:34;7.20;;;2.30;;
68273;SDS011;55104;47.356;19.448;2023-07-02T11:55:36;6.35;;;2.33;;
68273;SDS011;55104;47.356;19.448;2023-07-02T11:58:39;10.25;;;4.15;;
68273;SDS011;55104;47.356;19.448;2023-07-02T12:01:42;6.15;;;2.63;;
68273;SDS011;55104;47.356;19.448;2023-07-02T12:04:44;5.95;;;2.25;;
68273;SDS011;55104;47.356;19.448;2023-07-02T12:07:46;7.53;;;2.47;;
68273;SDS011;55104;47.356;19.448;2023-07-02T12:10:48;6.35;;;2.35;;
68273;SDS011;55104;47.356;19.448;2023-07-02T12:13:51;6.38;;;2.58;;
68273;SDS011;55104;47.356;19.448;2023-07-02T12:16:53;6.90;;;2.25;;
68273;SDS011;55104;47.356;19.448;2023-07-02T12:19:55;7.85;;;2.30;;
68273;SDS011;55104;47.356;19.448;2023-07-02T12:22:57;7.37;;;2.17;;
68273;SDS011;55104;47.356;19.448;2023-07-02T12:26:01;5.65;;;2.00;;
68273;SDS011;55104;47.356;19.448;2023-07-02T12:29:03;5.75;;;2.00;;
68273;SDS011;55104;47.356;19.448;2023-07-02T12:32:06;5.72;;;2.10;;
68273;SDS011;55104;47.356;19.448;2023-07-02T12:35:08;5.95;;;2.08;;
68273;SDS011;55104;47.356;19.448;2023-07-02T12:38:11;5.60;;;1.73;;
68273;SDS011;55104;47.356;19.448;2023-07-02T12:41:14;5.82;;;1.90;;
68273;SDS011;55104;47.356;19.448;2023-07-02T12:44:16;5.82;;;1.98;;
68273;SDS011;55104;47.356;19.448;2023-07-02T12:47:18;6.78;;;1.27;;
68273;SDS011;55104;47.356;19.448;2023-07-02T12:50:20;4.10;;;1.50;;
68273;SDS011;55104;47.356;19.448;2023-07-02T12:53:22;4.30;;;1.40;;
68273;SDS011;55104;47.356;19.448;2023-07-02T12:56:24;5.47;;;1.80;;
68273;SDS011;55104;47.356;19.448;2023-07-02T12:59:27;8.25;;;1.90;;
68273;SDS011;55104;47.356;19.448;2023-07-02T13:02:29;6.20;;;1.67;;
68273;SDS011;55104;47.356;19.448;2023-07-02T13:05:31;8.40;;;1.90;;
68273;SDS011;55104;47.356;19.448;2023-07-02T13:08:33;5.53;;;1.47;;
68273;SDS011;55104;47.356;19.448;2023-07-02T13:11:35;6.05;;;1.50;;
68273;SDS011;55104;47.356;19.448;2023-07-02T13:14:39;5.70;;;1.70;;
68273;SDS011;55104;47.356;19.448;2023-07-02T13:17:41;5.22;;;1.77;;
68273;SDS011;55104;47.356;19.448;2023-07-02T13:20:45;7.78;;;1.90;;
68273;SDS011;55104;47.356;19.448;2023-07-02T13:23:47;5.10;;;1.50;;
68273;SDS011;55104;47.356;19.448;2023-07-02T13:26:49;5.05;;;1.60;;
68273;SDS011;55104;47.356;19.448;2023-07-02T13:29:52;5.40;;;1.80;;
68273;SDS011;55104;47.356;19.448;2023-07-02T13:32:54;5.20;;;2.00;;
68273;SDS011;55104;47.356;19.448;2023-07-02T13:35:56;9.85;;;1.90;;
68273;SDS011;55104;47.356;19.448;2023-07-02T13:38:59;5.03;;;1.63;;
68273;SDS011;55104;47.356;19.448;2023-07-02T13:42:01;7.22;;;1.85;;
68273;SDS011;55104;47.356;19.448;2023-07-02T13:45:03;5.38;;;1.70;;
68273;SDS011;55104;47.356;19.448;2023-07-02T13:48:05;5.25;;;1.73;;
68273;SDS011;55104;47.356;19.448;2023-07-02T13:51:07;6.88;;;1.60;;
68273;SDS011;55104;47.356;19.448;2023-07-02T13:54:11;4.93;;;1.87;;
68273;SDS011;55104;47.356;19.448;2023-07-02T13:57:14;3.95;;;1.10;;
68273;SDS011;55104;47.356;19.448;2023-07-02T14:00:16;5.47;;;1.27;;
68273;SDS011;55104;47.356;19.448;2023-07-02T14:03:18;4.72;;;1.50;;
68273;SDS011;55104;47.356;19.448;2023-07-02T14:06:21;4.07;;;1.38;;
68273;SDS011;55104;47.356;19.448;2023-07-02T14:09:23;7.53;;;1.33;;
68273;SDS011;55104;47.356;19.448;2023-07-02T14:12:25;4.82;;;1.20;;
68273;SDS011;55104;47.356;19.448;2023-07-02T14:15:27;4.32;;;1.10;;
68273;SDS011;55104;47.356;19.448;2023-07-02T14:18:29;4.32;;;1.10;;
68273;SDS011;55104;47.356;19.448;2023-07-02T14:21:31;6.05;;;1.35;;
68273;SDS011;55104;47.356;19.448;2023-07-02T14:24:34;3.47;;;0.90;;
68273;SDS011;55104;47.356;19.448;2023-07-02T14:27:36;3.35;;;1.17;;
68273;SDS011;55104;47.356;19.448;2023-07-02T14:30:38;4.78;;;1.10;;
68273;SDS011;55104;47.356;19.448;2023-07-02T14:33:40;3.75;;;1.00;;
68273;SDS011;55104;47.356;19.448;2023-07-02T14:36:42;3.00;;;0.90;;
68273;SDS011;55104;47.356;19.448;2023-07-02T14:39:44;4.40;;;1.10;;
68273;SDS011;55104;47.356;19.448;2023-07-02T14:43:02;3.00;;;0.90;;
68273;SDS011;55104;47.356;19.448;2023-07-02T14:46:05;3.20;;;0.90;;
68273;SDS011;55104;47.356;19.448;2023-07-02T14:49:08;3.33;;;0.98;;
68273;SDS011;55104;47.356;19.448;2023-07-02T14:52:10;3.85;;;1.00;;
68273;SDS011;55104;47.356;19.448;2023-07-02T14:55:14;3.03;;;0.90;;
68273;SDS011;55104;47.356;19.448;2023-07-02T14:58:16;3.28;;;0.93;;
68273;SDS011;55104;47.356;19.448;2023-07-02T15:01:19;4.32;;;0.95;;
68273;SDS011;55104;47.356;19.448;2023-07-02T15:04:22;4.55;;;1.00;;
68273;SDS011;55104;47.356;19.448;2023-07-02T15:07:24;4.18;;;1.13;;
68273;SDS011;55104;47.356;19.448;2023-07-02T15:10:26;3.63;;;1.07;;
68273;SDS011;55104;47.356;19.448;2023-07-02T15:13:28;2.60;;;0.80;;
68273;SDS011;55104;47.356;19.448;2023-07-02T15:16:30;3.92;;;1.20;;
68273;SDS011;55104;47.356;19.448;2023-07-02T15:19:32;3.55;;;1.25;;
68273;SDS011;55104;47.356;19.448;2023-07-02T15:22:35;4.22;;;1.20;;
68273;SDS011;55104;47.356;19.448;2023-07-02T15:25:36;3.50;;;0.80;;
68273;SDS011;55104;47.356;19.448;2023-07-02T15:28:39;4.07;;;1.30;;
68273;SDS011;55104;47.356;19.448;2023-07-02T15:31:41;3.75;;;1.15;;
68273;SDS011;55104;47.356;19.448;2023-07-02T15:34:47;3.03;;;1.10;;
68273;SDS011;55104;47.356;19.448;2023-07-02T15:37:49;4.43;;;1.25;;
68273;SDS011;55104;47.356;19.448;2023-07-02T15:40:52;4.50;;;1.40;;
68273;SDS011;55104;47.356;19.448;2023-07-02T15:44:06;3.88;;;1.30;;
68273;SDS011;55104;47.356;19.448;2023-07-02T15:47:08;3.53;;;1.10;;
68273;SDS011;55104;47.356;19.448;2023-07-02T15:50:10;4.72;;;1.20;;
68273;SDS011;55104;47.356;19.448;2023-07-02T15:53:12;3.97;;;1.10;;
68273;SDS011;55104;47.356;19.448;2023-07-02T15:56:14;4.23;;;1.30;;
68273;SDS011;55104;47.356;19.448;2023-07-02T15:59:16;3.88;;;1.00;;
68273;SDS011;55104;47.356;19.448;2023-07-02T16:02:19;4.80;;;1.42;;
68273;SDS011;55104;47.356;19.448;2023-07-02T16:05:24;3.90;;;1.08;;
68273;SDS011;55104;47.356;19.448;2023-07-02T16:08:27;3.38;;;1.00;;
68273;SDS011;55104;47.356;19.448;2023-07-02T16:11:29;3.13;;;1.00;;
68273;SDS011;55104;47.356;19.448;2023-07-02T16:14:35;5.82;;;1.30;;
68273;SDS011;55104;47.356;19.448;2023-07-02T16:17:39;4.50;;;1.30;;
68273;SDS011;55104;47.356;19.448;2023-07-02T16:20:41;4.40;;;1.25;;
68273;SDS011;55104;47.356;19.448;2023-07-02T16:23:43;4.63;;;1.10;;
68273;SDS011;55104;47.356;19.448;2023-07-02T16:26:46;5.43;;;1.00;;
68273;SDS011;55104;47.356;19.448;2023-07-02T16:29:48;3.95;;;1.10;;
68273;SDS011;55104;47.356;19.448;2023-07-02T16:32:51;6.85;;;1.23;;
68273;SDS011;55104;47.356;19.448;2023-07-02T16:35:53;3.40;;;1.00;;
68273;SDS011;55104;47.356;19.448;2023-07-02T16:38:55;3.42;;;1.10;;
68273;SDS011;55104;47.356;19.448;2023-07-02T16:41:57;3.87;;;1.17;;
68273;SDS011;55104;47.356;19.448;2023-07-02T16:44:59;4.00;;;1.48;;
68273;SDS011;55104;47.356;19.448;2023-07-02T16:48:07;5.60;;;1.10;;
68273;SDS011;55104;47.356;19.448;2023-07-02T16:51:09;3.88;;;1.60;;
68273;SDS011;55104;47.356;19.448;2023-07-02T16:54:11;8.88;;;1.60;;
68273;SDS011;55104;47.356;19.448;2023-07-02T16:57:18;3.83;;;0.80;;
68273;SDS011;55104;47.356;19.448;2023-07-02T17:00:20;7.22;;;0.80;;
68273;SDS011;55104;47.356;19.448;2023-07-02T17:03:22;3.58;;;1.15;;
68273;SDS011;55104;47.356;19.448;2023-07-02T17:06:24;3.90;;;0.95;;
68273;SDS011;55104;47.356;19.448;2023-07-02T17:09:27;3.08;;;0.90;;
68273;SDS011;55104;47.356;19.448;2023-07-02T17:12:34;6.53;;;1.00;;
68273;SDS011;55104;47.356;19.448;2023-07-02T17:15:36;4.45;;;1.20;;
68273;SDS011;55104;47.356;19.448;2023-07-02T17:18:38;3.65;;;1.20;;
68273;SDS011;55104;47.356;19.448;2023-07-02T17:21:40;5.90;;;1.38;;
68273;SDS011;55104;47.356;19.448;2023-07-02T17:24:44;4.72;;;1.40;;
68273;SDS011;55104;47.356;19.448;2023-07-02T17:27:47;6.73;;;1.50;;
68273;SDS011;55104;47.356;19.448;2023-07-02T17:30:49;4.55;;;1.48;;
68273;SDS011;55104;47.356;19.448;2023-07-02T17:33:54;4.40;;;1.33;;
68273;SDS011;55104;47.356;19.448;2023-07-02T17:36:57;5.20;;;1.45;;
68273;SDS011;55104;47.356;19.448;2023-07-02T17:40:01;6.18;;;1.65;;
68273;SDS011;55104;47.356;19.448;2023-07-02T17:43:03;4.97;;;1.10;;
68273;SDS011;55104;47.356;19.448;2023-07-02T17:46:06;5.00;;;1.20;;
68273;SDS011;55104;47.356;19.448;2023-07-02T17:49:08;4.90;;;1.40;;
68273;SDS011;55104;47.356;19.448;2023-07-02T17:52:12;3.78;;;1.17;;
68273;SDS011;55104;47.356;19.448;2023-07-02T17:55:16;4.63;;;1.30;;
68273;SDS011;55104;47.356;19.448;2023-07-02T17:58:18;3.70;;;1.03;;
68273;SDS011;55104;47.356;19.448;2023-07-02T18:01:20;3.85;;;1.10;;
68273;SDS011;55104;47.356;19.448;2023-07-02T18:04:22;4.88;;;1.10;;